createdAt,value
2023-10-22T00:01:25.212Z,100253.40
2023-10-22T00:03:56.334Z,100264.80
2023-10-22T00:06:27.705Z,100271.95
2023-10-22T00:08:58.774Z,100278.69
2023-10-22T00:11:29.957Z,100281.66
2023-10-22T00:14:01.108Z,100285.27
2023-10-22T00:16:32.338Z,100291.11
2023-10-22T00:19:03.626Z,100290.34
2023-10-22T00:21:34.515Z,100293.27
2023-10-22T00:24:05.744Z,100295.04
2023-10-22T00:26:37.014Z,100295.41
2023-10-22T00:29:08.202Z,100294.98
2023-10-22T00:31:39.917Z,100299.89
2023-10-22T00:34:11.579Z,100297.81
2023-10-22T00:36:43.449Z,100301.35
2023-10-22T00:39:15.284Z,100304.90
2023-10-22T00:41:47.279Z,100305.72
2023-10-22T00:44:18.343Z,100308.50
2023-10-22T00:46:51.201Z,100308.09
2023-10-22T00:49:22.946Z,100307.30
2023-10-22T00:51:54.525Z,100311.55
2023-10-22T00:54:27.619Z,100312.02
2023-10-22T00:57:00.388Z,100309.73
2023-10-22T00:59:31.641Z,100314.55
2023-10-22T01:02:02.726Z,100324.27
2023-10-22T01:04:35.050Z,100331.58
2023-10-22T01:07:08.005Z,100336.70
2023-10-22T01:09:39.703Z,100336.64
2023-10-22T01:12:11.562Z,100337.57
2023-10-22T01:14:42.580Z,100338.54
2023-10-22T01:17:31.558Z,100344.41
2023-10-22T01:20:03.294Z,100345.63
2023-10-22T01:22:36.656Z,100346.44
2023-10-22T01:25:09.267Z,100353.50
2023-10-22T01:27:40.847Z,100348.13
2023-10-22T01:30:13.613Z,100344.05
2023-10-22T01:32:44.851Z,100339.88
2023-10-22T01:35:15.826Z,100336.04
2023-10-22T01:37:47.125Z,100331.44
2023-10-22T01:40:18.389Z,100336.33
2023-10-22T01:42:49.893Z,100342.32
2023-10-22T01:45:21.605Z,100343.48
2023-10-22T01:47:53.145Z,100341.08
2023-10-22T01:50:24.731Z,100345.02
2023-10-22T01:52:56.200Z,100338.23
2023-10-22T01:55:27.609Z,100339.58
2023-10-22T01:57:59.641Z,100336.17
2023-10-22T02:00:31.523Z,100337.60
2023-10-22T02:03:05.675Z,100337.30
2023-10-22T02:05:37.988Z,100342.66
2023-10-22T02:08:09.317Z,100346.00
2023-10-22T02:10:40.396Z,100349.23
2023-10-22T02:13:11.486Z,100355.25
2023-10-22T02:15:42.518Z,100354.52
2023-10-22T02:18:14.017Z,100358.27
2023-10-22T02:20:57.326Z,100362.91
2023-10-22T02:23:29.527Z,100368.92
2023-10-22T02:26:00.527Z,100368.92
2023-10-22T02:28:31.901Z,100373.59
2023-10-22T02:31:05.815Z,100374.26
2023-10-22T02:33:38.186Z,100379.15
2023-10-22T02:36:11.728Z,100382.14
2023-10-22T02:38:43.145Z,100387.70
2023-10-22T02:41:14.648Z,100379.27
2023-10-22T02:43:45.882Z,100383.52
2023-10-22T02:46:18.428Z,100385.77
2023-10-22T02:48:49.495Z,100387.54
2023-10-22T02:51:21.336Z,100391.05
2023-10-22T02:53:52.927Z,100392.69
2023-10-22T02:56:24.729Z,100394.87
2023-10-22T02:58:55.521Z,100398.54
2023-10-22T03:01:28.369Z,100399.34
2023-10-22T03:03:59.639Z,100405.33
2023-10-22T03:06:30.797Z,100412.30
2023-10-22T03:09:02.133Z,100415.39
2023-10-22T03:11:33.414Z,100419.53
2023-10-22T03:14:06.440Z,100419.94
2023-10-22T03:16:37.758Z,100421.69
2023-10-22T03:19:09.771Z,100423.45
2023-10-22T03:21:42.810Z,100426.80
2023-10-22T03:24:16.675Z,100424.37
2023-10-22T03:26:48.113Z,100428.30
2023-10-22T03:29:19.231Z,100431.88
2023-10-22T03:31:50.611Z,100430.70
2023-10-22T03:34:24.045Z,100435.76
2023-10-22T03:36:55.131Z,100439.02
2023-10-22T03:39:26.610Z,100436.55
2023-10-22T03:41:57.950Z,100442.90
2023-10-22T03:44:30.429Z,100444.27
2023-10-22T03:47:01.871Z,100445.40
2023-10-22T03:49:36.564Z,100448.25
2023-10-22T03:52:08.620Z,100450.50
2023-10-22T03:54:39.824Z,100457.66
2023-10-22T03:57:11.031Z,100463.02
2023-10-22T03:59:42.202Z,100466.45
2023-10-22T04:02:13.358Z,100471.14
2023-10-22T04:04:44.736Z,100468.56
2023-10-22T04:07:15.938Z,100469.94
2023-10-22T04:09:48.361Z,100472.39
2023-10-22T04:12:19.695Z,100476.08
2023-10-22T04:14:50.980Z,100477.93
2023-10-22T04:17:22.127Z,100484.15
2023-10-22T04:19:53.416Z,100485.25
2023-10-22T04:22:24.392Z,100492.31
2023-10-22T04:24:55.842Z,100494.86
2023-10-22T04:27:27.160Z,100496.55
2023-10-22T04:29:58.320Z,100501.44
2023-10-22T04:32:29.935Z,100506.09
2023-10-22T04:35:01.521Z,100510.41
2023-10-22T04:37:32.453Z,100511.66
2023-10-22T04:40:04.692Z,100519.48
2023-10-22T04:42:35.722Z,100519.40
2023-10-22T04:45:08.408Z,100526.35
2023-10-22T04:47:39.812Z,100535.38
2023-10-22T04:50:12.457Z,100539.40
2023-10-22T04:52:43.428Z,100544.35
2023-10-22T04:55:15.159Z,100542.69
2023-10-22T04:57:46.337Z,100546.26
2023-10-22T05:00:19.635Z,100550.05
2023-10-22T05:02:51.300Z,100554.98
2023-10-22T05:05:23.497Z,100557.18
2023-10-22T05:07:54.595Z,100558.32
2023-10-22T05:10:25.404Z,100561.95
2023-10-22T05:12:56.282Z,100565.48
2023-10-22T05:15:27.603Z,100564.29
2023-10-22T05:17:59.061Z,100566.93
2023-10-22T05:20:32.991Z,100572.73
2023-10-22T05:23:05.746Z,100580.86
2023-10-22T05:25:37.998Z,100589.23
2023-10-22T05:28:09.244Z,100593.11
2023-10-22T05:30:40.668Z,100591.26
2023-10-22T05:33:11.864Z,100597.14
2023-10-22T05:35:43.127Z,100599.33
2023-10-22T05:38:14.395Z,100602.33
2023-10-22T05:40:45.252Z,100609.75
2023-10-22T05:43:16.504Z,100611.58
2023-10-22T05:45:48.690Z,100615.27
2023-10-22T05:48:19.853Z,100614.96
2023-10-22T05:50:52.031Z,100614.84
2023-10-22T05:53:23.130Z,100614.45
2023-10-22T05:56:00.589Z,100617.48
2023-10-22T05:58:31.821Z,100623.44
2023-10-22T06:01:03.098Z,100622.88
2023-10-22T06:03:34.932Z,100626.08
2023-10-22T06:06:06.513Z,100633.19
2023-10-22T06:08:37.880Z,100634.61
2023-10-22T06:11:09.182Z,100634.67
2023-10-22T06:13:40.602Z,100638.14
2023-10-22T06:16:12.340Z,100639.86
2023-10-22T06:18:43.644Z,100647.77
2023-10-22T06:21:15.788Z,100647.11
2023-10-22T06:23:47.610Z,100650.20
2023-10-22T06:26:18.946Z,100653.42
2023-10-22T06:28:51.235Z,100654.75
2023-10-22T06:31:22.314Z,100658.14
2023-10-22T06:33:53.655Z,100662.06
2023-10-22T06:36:26.574Z,100668.08
2023-10-22T06:38:57.717Z,100669.16
2023-10-22T06:41:29.506Z,100675.76
2023-10-22T06:44:00.427Z,100676.39
2023-10-22T06:46:31.662Z,100681.94
2023-10-22T06:49:03.245Z,100679.41
2023-10-22T06:51:34.669Z,100683.51
2023-10-22T06:54:07.003Z,100690.05
2023-10-22T06:56:38.221Z,100696.41
2023-10-22T06:59:09.832Z,100702.00
2023-10-22T07:01:41.039Z,100704.15
2023-10-22T07:04:13.903Z,100709.39
2023-10-22T07:06:45.203Z,100710.38
2023-10-22T07:09:16.235Z,100717.09
2023-10-22T07:11:47.875Z,100720.34
2023-10-22T07:14:19.064Z,100723.97
2023-10-22T07:16:50.414Z,100732.04
2023-10-22T07:19:21.493Z,100736.64
2023-10-22T07:21:52.638Z,100742.29
2023-10-22T07:24:24.229Z,100751.64
2023-10-22T07:26:55.814Z,100759.45
2023-10-22T07:29:27.399Z,100761.84
2023-10-22T07:31:58.619Z,100766.34
2023-10-22T07:34:31.372Z,100767.34
2023-10-22T07:37:02.429Z,100767.95
2023-10-22T07:39:34.131Z,100773.75
2023-10-22T07:42:05.319Z,100775.07
2023-10-22T07:44:37.689Z,100778.55
2023-10-22T07:47:09.497Z,100777.56
2023-10-22T07:49:40.644Z,100781.73
2023-10-22T07:52:11.996Z,100782.56
2023-10-22T07:54:42.906Z,100784.11
2023-10-22T07:57:14.120Z,100785.02
2023-10-22T07:59:45.068Z,100786.55
2023-10-22T08:02:16.185Z,100790.54
2023-10-22T08:04:47.338Z,100798.23
2023-10-22T08:07:20.011Z,100797.52
2023-10-22T08:09:51.301Z,100793.22
2023-10-22T08:12:22.384Z,100798.10
2023-10-22T08:14:53.987Z,100802.94
2023-10-22T08:17:25.196Z,100802.05
2023-10-22T08:19:56.003Z,100805.34
2023-10-22T08:22:26.833Z,100806.55
2023-10-22T08:24:58.051Z,100805.55
2023-10-22T08:27:29.167Z,100804.67
2023-10-22T08:30:00.415Z,100814.60
2023-10-22T08:32:31.467Z,100813.67
2023-10-22T08:35:06.124Z,100811.63
2023-10-22T08:37:37.630Z,100806.67
2023-10-22T08:40:11.283Z,100807.73
2023-10-22T08:42:42.410Z,100803.63
2023-10-22T08:45:13.828Z,100799.73
2023-10-22T08:47:44.860Z,100803.70
2023-10-22T08:50:17.912Z,100807.97
2023-10-22T08:52:49.770Z,100810.95
2023-10-22T08:55:22.184Z,100812.68
2023-10-22T08:57:53.666Z,100810.66
2023-10-22T09:00:29.410Z,100812.27
2023-10-22T09:03:02.824Z,100814.08
2023-10-22T09:05:33.882Z,100811.20
2023-10-22T09:08:05.313Z,100815.85
2023-10-22T09:10:37.791Z,100809.36
2023-10-22T09:13:15.509Z,100810.71
2023-10-22T09:15:48.543Z,100813.56
2023-10-22T09:18:20.829Z,100811.96
2023-10-22T09:20:51.976Z,100818.73
2023-10-22T09:23:24.001Z,100819.79
2023-10-22T09:25:57.761Z,100823.73
2023-10-22T09:28:30.221Z,100820.89
2023-10-22T09:31:02.801Z,100825.01
2023-10-22T09:33:39.020Z,100828.71
2023-10-22T09:36:12.147Z,100828.58
2023-10-22T09:38:48.268Z,100827.40
2023-10-22T09:41:29.665Z,100828.62
2023-10-22T09:44:02.626Z,100833.52
2023-10-22T09:46:35.289Z,100837.27
2023-10-22T09:49:08.395Z,100839.83
2023-10-22T09:51:40.374Z,100843.98
2023-10-22T09:54:11.902Z,100846.73
2023-10-22T09:56:53.208Z,100851.83
2023-10-22T09:59:25.074Z,100856.71
2023-10-22T10:01:56.257Z,100856.70
2023-10-22T10:04:28.373Z,100857.75
2023-10-22T10:07:03.277Z,100860.48
2023-10-22T10:09:36.246Z,100858.52
2023-10-22T10:12:10.139Z,100861.67
2023-10-22T10:14:49.046Z,100866.04
2023-10-22T10:17:21.919Z,100865.13
2023-10-22T10:19:53.424Z,100868.98
2023-10-22T10:22:43.756Z,100867.14
2023-10-22T10:25:32.084Z,100869.54
2023-10-22T10:28:07.807Z,100866.17
2023-10-22T10:30:40.681Z,100864.23
2023-10-22T10:33:17.059Z,100863.98
2023-10-22T10:35:50.873Z,100871.05
2023-10-22T10:38:30.041Z,100866.07
2023-10-22T10:41:00.882Z,100865.05
2023-10-22T10:43:59.311Z,100863.20
2023-10-22T10:46:31.191Z,100861.66
2023-10-22T10:49:02.257Z,100862.23
2023-10-22T10:51:33.391Z,100861.80
2023-10-22T10:54:19.902Z,100861.84
2023-10-22T10:56:53.346Z,100862.30
2023-10-22T10:59:35.625Z,100864.62
2023-10-22T11:02:13.307Z,100865.77
2023-10-22T11:04:48.235Z,100864.80
2023-10-22T11:07:27.370Z,100869.48
2023-10-22T11:09:59.275Z,100868.79
2023-10-22T11:12:30.519Z,100872.73
2023-10-22T11:15:01.705Z,100873.64
2023-10-22T11:17:32.999Z,100874.01
2023-10-22T11:20:05.720Z,100874.74
2023-10-22T11:22:37.350Z,100877.46
2023-10-22T11:25:11.315Z,100876.27
2023-10-22T11:27:43.160Z,100878.80
2023-10-22T11:30:34.428Z,100875.23
2023-10-22T11:33:05.762Z,100873.30
2023-10-22T11:35:38.850Z,100874.18
2023-10-22T11:38:09.891Z,100876.95
2023-10-22T11:40:42.691Z,100877.63
2023-10-22T11:43:20.190Z,100883.33
2023-10-22T11:45:55.702Z,100882.83
2023-10-22T11:48:29.060Z,100876.35
2023-10-22T11:51:01.932Z,100880.77
2023-10-22T11:53:43.774Z,100876.69
2023-10-22T11:56:14.713Z,100877.30
2023-10-22T11:58:52.437Z,100876.85
2023-10-22T12:01:23.634Z,100878.04
2023-10-22T12:03:55.193Z,100875.89
2023-10-22T12:06:26.546Z,100873.73
2023-10-22T12:08:57.486Z,100877.95
2023-10-22T12:11:28.484Z,100874.73
2023-10-22T12:13:59.544Z,100873.17
2023-10-22T12:16:30.955Z,100873.91
2023-10-22T12:19:02.461Z,100872.60
2023-10-22T12:21:33.366Z,100872.55
2023-10-22T12:24:12.574Z,100875.89
2023-10-22T12:26:51.634Z,100876.55
2023-10-22T12:29:23.792Z,100877.91
2023-10-22T12:31:54.930Z,100877.55
2023-10-22T12:34:26.542Z,100879.61
2023-10-22T12:36:57.360Z,100879.96
2023-10-22T12:39:28.516Z,100880.54
2023-10-22T12:41:59.514Z,100880.91
2023-10-22T12:44:30.787Z,100880.98
2023-10-22T12:47:01.835Z,100882.72
2023-10-22T12:49:32.872Z,100884.52
2023-10-22T12:52:03.978Z,100893.90
2023-10-22T12:54:34.831Z,100891.92
2023-10-22T12:57:06.359Z,100888.16
2023-10-22T12:59:37.478Z,100894.21
2023-10-22T13:02:09.648Z,100889.13
2023-10-22T13:04:41.841Z,100893.13
2023-10-22T13:07:12.959Z,100894.30
2023-10-22T13:09:43.899Z,100894.85
2023-10-22T13:12:14.800Z,100895.16
2023-10-22T13:14:45.765Z,100893.98
2023-10-22T13:17:16.934Z,100893.45
2023-10-22T13:19:47.989Z,100894.81
2023-10-22T13:22:18.981Z,100894.85
2023-10-22T13:24:50.590Z,100898.80
2023-10-22T13:27:21.471Z,100895.94
2023-10-22T13:29:52.482Z,100903.38
2023-10-22T13:32:23.334Z,100909.10
2023-10-22T13:34:55.015Z,100910.42
2023-10-22T13:37:26.394Z,100912.16
2023-10-22T13:39:57.209Z,100914.70
2023-10-22T13:42:28.317Z,100917.50
2023-10-22T13:44:59.348Z,100916.41
2023-10-22T13:47:30.532Z,100918.17
2023-10-22T13:50:01.544Z,100916.67
2023-10-22T13:52:32.595Z,100922.05
2023-10-22T13:55:03.531Z,100921.45
2023-10-22T13:57:34.547Z,100920.09
2023-10-22T14:00:11.083Z,100926.14
2023-10-22T14:02:42.362Z,100927.14
2023-10-22T14:05:14.016Z,100924.52
2023-10-22T14:07:46.085Z,100926.63
2023-10-22T14:10:17.953Z,100929.39
2023-10-22T14:12:48.777Z,100928.03
2023-10-22T14:15:22.095Z,100934.05
2023-10-22T14:17:53.107Z,100935.93
2023-10-22T14:20:24.024Z,100941.08
2023-10-22T14:22:54.948Z,100937.15
2023-10-22T14:25:26.248Z,100940.86
2023-10-22T14:27:57.281Z,100939.44
2023-10-22T14:30:28.541Z,100936.45
2023-10-22T14:32:59.812Z,100937.34
2023-10-22T14:35:30.999Z,100934.13
2023-10-22T14:38:01.882Z,100931.84
2023-10-22T14:40:32.710Z,100929.64
2023-10-22T14:43:03.550Z,100929.71
2023-10-22T14:45:35.144Z,100936.73
2023-10-22T14:48:06.747Z,100940.86
2023-10-22T14:50:37.690Z,100947.38
2023-10-22T14:53:08.436Z,100942.02
2023-10-22T14:55:39.344Z,100939.35
2023-10-22T14:58:10.205Z,100940.27
2023-10-22T15:00:42.415Z,100936.96
2023-10-22T15:03:13.617Z,100939.67
2023-10-22T15:05:47.919Z,100940.98
2023-10-22T15:08:19.328Z,100941.66
2023-10-22T15:10:50.315Z,100938.84
2023-10-22T15:13:21.230Z,100940.21
2023-10-22T15:15:52.662Z,100938.83
2023-10-22T15:18:24.074Z,100940.27
2023-10-22T15:20:55.151Z,100941.81
2023-10-22T15:23:26.390Z,100940.45
2023-10-22T15:25:57.373Z,100941.15
2023-10-22T15:28:28.505Z,100939.05
2023-10-22T15:30:59.774Z,100941.99
2023-10-22T15:33:31.562Z,100941.39
2023-10-22T15:36:03.899Z,100944.72
2023-10-22T15:38:34.845Z,100950.92
2023-10-22T15:41:07.578Z,100948.19
2023-10-22T15:43:38.682Z,100949.29
2023-10-22T15:46:22.267Z,100953.38
2023-10-22T15:48:53.238Z,100950.39
2023-10-22T15:51:25.994Z,100951.11
2023-10-22T15:53:57.445Z,100958.25
2023-10-22T15:56:28.439Z,100954.23
2023-10-22T15:58:59.369Z,100955.08
2023-10-22T16:01:30.591Z,100950.92
2023-10-22T16:04:01.472Z,100953.22
2023-10-22T16:06:32.507Z,100957.94
2023-10-22T16:09:05.817Z,100964.08
2023-10-22T16:11:36.874Z,100965.80
2023-10-22T16:14:09.201Z,100968.70
2023-10-22T16:16:40.236Z,100975.41
2023-10-22T16:19:11.231Z,100976.50
2023-10-22T16:21:43.034Z,100975.89
2023-10-22T16:24:14.049Z,100976.80
2023-10-22T16:26:45.907Z,100977.20
2023-10-22T16:29:16.737Z,100972.83
2023-10-22T16:31:47.785Z,100977.27
2023-10-22T16:34:18.987Z,100977.93
2023-10-22T16:36:50.111Z,100980.27
2023-10-22T16:39:21.959Z,100982.98
2023-10-22T16:41:53.277Z,100983.15
2023-10-22T16:44:24.901Z,100981.08
2023-10-22T16:46:56.565Z,100982.45
2023-10-22T16:49:29.812Z,100982.81
2023-10-22T16:52:00.727Z,100986.48
2023-10-22T16:54:31.738Z,100982.94
2023-10-22T16:57:03.814Z,100986.61
2023-10-22T16:59:34.667Z,100986.90
2023-10-22T17:02:05.879Z,100987.85
2023-10-22T17:04:36.889Z,100994.95
2023-10-22T17:07:07.997Z,100997.54
2023-10-22T17:09:39.157Z,101000.65
2023-10-22T17:12:10.769Z,101005.80
2023-10-22T17:14:52.233Z,101013.83
2023-10-22T17:17:24.149Z,101015.56
2023-10-22T17:19:55.290Z,101015.62
2023-10-22T17:22:26.425Z,101017.84
2023-10-22T17:24:58.033Z,101018.11
2023-10-22T17:27:29.266Z,101025.35
2023-10-22T17:30:00.296Z,101030.19
2023-10-22T17:32:33.499Z,101034.15
2023-10-22T17:35:04.782Z,101041.81
2023-10-22T17:37:35.578Z,101045.22
2023-10-22T17:40:08.112Z,101041.96
2023-10-22T17:42:40.018Z,101045.29
2023-10-22T17:45:12.160Z,101043.91
2023-10-22T17:47:44.234Z,101045.18
2023-10-22T17:50:16.342Z,101040.20
2023-10-22T17:52:49.083Z,101040.62
2023-10-22T17:55:20.047Z,101051.74
2023-10-22T17:57:50.807Z,101053.02
2023-10-22T18:00:23.236Z,101060.11
2023-10-22T18:02:56.383Z,101056.73
2023-10-22T18:05:27.549Z,101060.43
2023-10-22T18:07:58.752Z,101066.46
2023-10-22T18:10:29.643Z,101060.61
2023-10-22T18:13:00.563Z,101061.24
2023-10-22T18:15:31.479Z,101065.36
2023-10-22T18:18:02.561Z,101067.29
2023-10-22T18:20:35.903Z,101070.58
2023-10-22T18:23:06.763Z,101073.99
2023-10-22T18:25:38.837Z,101077.87
2023-10-22T18:28:10.428Z,101085.98
2023-10-22T18:30:43.859Z,101086.62
2023-10-22T18:33:15.133Z,101088.60
2023-10-22T18:35:46.655Z,101096.27
2023-10-22T18:38:17.916Z,101095.86
2023-10-22T18:40:48.765Z,101094.04
2023-10-22T18:43:19.728Z,101097.77
2023-10-22T18:45:52.182Z,101100.70
2023-10-22T18:48:23.431Z,101101.71
2023-10-22T18:51:02.032Z,101103.30
2023-10-22T18:53:33.324Z,101107.74
2023-10-22T18:56:05.401Z,101111.45
2023-10-22T18:58:38.036Z,101109.56
2023-10-22T19:01:15.825Z,101115.41
2023-10-22T19:03:47.326Z,101120.19
2023-10-22T19:06:24.004Z,101118.86
2023-10-22T19:08:55.293Z,101121.14
2023-10-22T19:11:29.503Z,101119.43
2023-10-22T19:14:01.170Z,101123.52
2023-10-22T19:16:34.482Z,101121.74
2023-10-22T19:19:05.734Z,101128.18
2023-10-22T19:21:36.875Z,101128.81
2023-10-22T19:24:09.086Z,101131.37
2023-10-22T19:26:40.364Z,101135.59
2023-10-22T19:29:11.314Z,101142.27
2023-10-22T19:31:43.014Z,101140.35
2023-10-22T19:34:14.158Z,101144.75
2023-10-22T19:36:45.386Z,101141.77
2023-10-22T19:39:16.454Z,101142.11
2023-10-22T19:41:48.545Z,101140.55
2023-10-22T19:44:19.737Z,101137.88
2023-10-22T19:46:50.661Z,101151.52
2023-10-22T19:49:21.945Z,101149.50
2023-10-22T19:51:53.397Z,101157.39
2023-10-22T19:54:26.322Z,101160.85
2023-10-22T19:57:01.133Z,101167.25
2023-10-22T19:59:33.467Z,101170.03
2023-10-22T20:02:17.657Z,101173.44
2023-10-22T20:04:49.619Z,101180.17
2023-10-22T20:07:20.776Z,101185.25
2023-10-22T20:09:51.669Z,101188.71
2023-10-22T20:12:23.428Z,101195.55
2023-10-22T20:14:55.048Z,101195.70
2023-10-22T20:17:26.135Z,101196.53
2023-10-22T20:19:57.549Z,101194.25
2023-10-22T20:22:28.404Z,101196.63
2023-10-22T20:24:59.600Z,101203.05
2023-10-22T20:27:31.722Z,101212.24
2023-10-22T20:30:03.559Z,101212.92
2023-10-22T20:32:34.449Z,101211.06
2023-10-22T20:35:06.336Z,101209.10
2023-10-22T20:37:38.492Z,101207.02
2023-10-22T20:40:10.896Z,101209.68
2023-10-22T20:42:41.979Z,101211.13
2023-10-22T20:45:13.431Z,101213.19
2023-10-22T20:47:47.469Z,101219.45
2023-10-22T20:50:18.474Z,101223.30
2023-10-22T20:52:49.336Z,101230.97
2023-10-22T20:55:20.418Z,101237.30
2023-10-22T20:57:51.271Z,101237.88
2023-10-22T21:00:22.441Z,101241.26
2023-10-22T21:02:53.445Z,101242.84
2023-10-22T21:05:24.208Z,101233.91
2023-10-22T21:07:55.197Z,101227.13
2023-10-22T21:10:26.060Z,101216.22
2023-10-22T21:12:56.806Z,101210.36
2023-10-22T21:15:27.720Z,101206.16
2023-10-22T21:17:58.756Z,101210.17
2023-10-22T21:20:29.755Z,101216.60
2023-10-22T21:23:00.991Z,101214.20
2023-10-22T21:25:31.893Z,101211.62
2023-10-22T21:28:02.817Z,101205.29
2023-10-22T21:30:33.808Z,101203.54
2023-10-22T21:33:04.912Z,101205.66
2023-10-22T21:35:35.880Z,101210.35
2023-10-22T21:38:06.689Z,101212.88
2023-10-22T21:40:37.629Z,101213.70
2023-10-22T21:43:08.760Z,101215.55
2023-10-22T21:45:39.881Z,101220.07
2023-10-22T21:48:11.128Z,101222.99
2023-10-22T21:50:43.632Z,101225.56
2023-10-22T21:53:14.602Z,101225.80
2023-10-22T21:55:54.183Z,101224.92
2023-10-22T21:58:25.113Z,101224.83
2023-10-22T22:00:57.138Z,101214.04
2023-10-22T22:03:28.622Z,101205.38
2023-10-22T22:05:59.693Z,101206.98
2023-10-22T22:08:30.563Z,101203.84
2023-10-22T22:11:01.946Z,101207.73
2023-10-22T22:13:33.055Z,101209.73
2023-10-22T22:16:04.044Z,101211.73
2023-10-22T22:18:34.946Z,101209.98
2023-10-22T22:21:05.896Z,101209.99
2023-10-22T22:23:36.814Z,101210.80
2023-10-22T22:26:07.736Z,101220.00
2023-10-22T22:28:39.824Z,101223.15
2023-10-22T22:31:11.163Z,101228.84
2023-10-22T22:33:42.595Z,101233.77
2023-10-22T22:36:14.272Z,101236.38
2023-10-22T22:38:47.170Z,101237.89
2023-10-22T22:41:18.351Z,101235.20
2023-10-22T22:43:49.211Z,101236.78
2023-10-22T22:46:20.331Z,101242.68
2023-10-22T22:48:51.504Z,101246.23
2023-10-22T22:51:22.833Z,101247.48
2023-10-22T22:53:53.942Z,101251.63
2023-10-22T22:56:25.083Z,101250.42
2023-10-22T22:58:56.227Z,101252.90
2023-10-22T23:01:27.759Z,101253.39
2023-10-22T23:03:58.701Z,101255.44
2023-10-22T23:06:29.769Z,101249.02
2023-10-22T23:09:00.662Z,101260.98
2023-10-22T23:11:32.771Z,101268.28
2023-10-22T23:14:04.058Z,101269.91
2023-10-22T23:16:35.481Z,101267.07
2023-10-22T23:19:06.727Z,101266.88
2023-10-22T23:21:38.366Z,101263.63
2023-10-22T23:24:10.390Z,101263.86
2023-10-22T23:26:41.297Z,101264.38
2023-10-22T23:29:12.622Z,101260.02
2023-10-22T23:31:43.715Z,101260.68
2023-10-22T23:34:15.018Z,101263.45
2023-10-22T23:36:46.069Z,101266.95
2023-10-22T23:39:17.585Z,101262.84
2023-10-22T23:41:49.369Z,101263.80
2023-10-22T23:44:20.533Z,101268.15
2023-10-22T23:46:51.413Z,101266.88
2023-10-22T23:49:22.625Z,101265.48
2023-10-22T23:51:53.653Z,101269.08
2023-10-22T23:54:24.846Z,101260.54
2023-10-22T23:56:56.083Z,101263.70
2023-10-22T23:59:27.577Z,101262.19
